Time;durP1;ratioP1;P1;durP2;ratioP2;P2;SDS_P1;SDS_P2;PMS_P1;PMS_P2;Temp;Humidity;BMP_temperature;BMP_pressure;BME280_temperature;BME280_humidity;BME280_pressure;Samples;Min_cycle;Max_cycle;Signal;HPM_P1;HPM_P2
2022/07/29 00:01:18;;;;;;;1.65;0.20;;;16.70;99.90;;;;;;4984594;28;20049;-82
2022/07/29 00:03:44;;;;;;;1.58;0.20;;;16.70;99.90;;;;;;4967927;28;20046;-83
2022/07/29 00:06:09;;;;;;;1.33;0.30;;;16.70;99.90;;;;;;4966712;28;20061;-78
2022/07/29 00:08:35;;;;;;;0.80;0.20;;;16.60;99.90;;;;;;4965954;28;20062;-79
2022/07/29 00:11:01;;;;;;;0.80;0.10;;;16.60;99.90;;;;;;4969090;28;20035;-78
2022/07/29 00:13:27;;;;;;;0.68;0.10;;;16.60;99.90;;;;;;4948737;28;20524;-80
2022/07/29 00:15:52;;;;;;;1.48;0.10;;;16.60;99.90;;;;;;4981419;28;20038;-81
2022/07/29 00:18:18;;;;;;;1.67;0.10;;;16.60;99.90;;;;;;4961765;28;20085;-80
2022/07/29 00:20:44;;;;;;;0.65;0.17;;;16.60;99.90;;;;;;4983899;28;20361;-80
2022/07/29 00:23:09;;;;;;;1.25;0.20;;;16.50;99.90;;;;;;4983347;28;20042;-80
2022/07/29 00:25:35;;;;;;;1.30;0.20;;;16.50;99.90;;;;;;4967185;28;20510;-85
2022/07/29 00:28:01;;;;;;;0.28;0.10;;;16.50;99.90;;;;;;4977873;28;20034;-80
2022/07/29 00:30:26;;;;;;;2.25;0.30;;;16.50;99.90;;;;;;4984061;28;20072;-80
2022/07/29 00:32:52;;;;;;;0.82;0.25;;;16.50;99.90;;;;;;4983508;28;20038;-79
2022/07/29 00:38:02;;;;;;;1.63;0.20;;;16.50;99.90;;;;;;4965653;28;20031;-81
2022/07/29 00:40:27;;;;;;;1.23;0.20;;;16.40;99.90;;;;;;4983945;28;20030;-79
2022/07/29 00:42:53;;;;;;;0.85;0.17;;;16.40;99.90;;;;;;4976950;28;20030;-80
2022/07/29 00:45:19;;;;;;;1.85;0.20;;;16.40;99.90;;;;;;4984162;28;20038;-80
2022/07/29 00:47:45;;;;;;;0.55;0.20;;;16.40;99.90;;;;;;4966795;28;20040;-82
2022/07/29 00:50:12;;;;;;;1.38;0.20;;;16.40;99.90;;;;;;4965786;28;20038;-81
2022/07/29 00:52:39;;;;;;;1.33;0.20;;;16.40;99.90;;;;;;4959135;28;20022;-79
2022/07/29 00:55:08;;;;;;;1.90;0.30;;;16.40;99.90;;;;;;4959873;28;20100;-78
2022/07/29 00:57:35;;;;;;;0.50;0.20;;;16.30;99.90;;;;;;4982506;28;20117;-78
2022/07/29 01:00:01;;;;;;;2.35;0.20;;;16.40;99.90;;;;;;4966014;28;20286;-81
2022/07/29 01:02:27;;;;;;;0.75;0.20;;;16.30;99.90;;;;;;4944250;28;20048;-78
2022/07/29 01:04:53;;;;;;;1.17;0.20;;;16.40;99.90;;;;;;4972699;28;20039;-82
2022/07/29 01:07:19;;;;;;;1.27;0.20;;;16.30;99.90;;;;;;4965069;28;20470;-82
2022/07/29 01:09:46;;;;;;;0.55;0.20;;;16.30;99.90;;;;;;4960210;28;20038;-81
2022/07/29 01:12:15;;;;;;;1.90;0.20;;;16.30;99.90;;;;;;4966119;28;20044;-84
2022/07/29 01:14:42;;;;;;;0.60;0.20;;;16.30;99.90;;;;;;4967355;28;20454;-82
2022/07/29 01:17:17;;;;;;;1.35;0.30;;;16.30;99.90;;;;;;4982624;28;20293;-81
2022/07/29 01:19:49;;;;;;;0.85;0.10;;;16.30;99.90;;;;;;4949214;28;20360;-81
2022/07/29 01:22:25;;;;;;;0.73;0.10;;;16.30;99.90;;;;;;4944294;28;20137;-79
2022/07/29 01:25:10;;;;;;;1.08;0.20;;;16.30;99.90;;;;;;4948674;28;20074;-83
2022/07/29 01:27:55;;;;;;;1.02;0.30;;;16.20;99.90;;;;;;4951054;28;20033;-79
2022/07/29 01:30:24;;;;;;;0.65;0.20;;;16.20;99.90;;;;;;4960325;28;20034;-79
2022/07/29 01:32:56;;;;;;;0.73;0.20;;;16.20;99.90;;;;;;4959448;28;20030;-81
2022/07/29 01:35:48;;;;;;;0.63;0.20;;;16.20;99.90;;;;;;4982245;28;20117;-82
2022/07/29 01:38:20;;;;;;;2.92;0.20;;;16.10;99.90;;;;;;4978738;28;20059;-78
2022/07/29 01:40:53;;;;;;;2.03;0.40;;;16.10;99.90;;;;;;4981390;28;20033;-83
2022/07/29 01:43:26;;;;;;;2.15;0.50;;;16.10;99.90;;;;;;4977237;28;20026;-77
2022/07/29 01:46:07;;;;;;;1.80;0.47;;;16.00;99.90;;;;;;4959117;28;20475;-78
2022/07/29 01:48:47;;;;;;;0.77;0.20;;;16.00;99.90;;;;;;4958752;28;20037;-83
2022/07/29 01:51:33;;;;;;;;;;;16.10;99.90;;;;;;4982780;28;20038;-83
2022/07/29 01:54:26;;;;;;;2.65;0.30;;;16.10;99.90;;;;;;4982365;28;19976;-79
2022/07/29 01:56:55;;;;;;;1.75;0.30;;;16.00;99.90;;;;;;4982849;28;20039;-78
2022/07/29 01:59:21;;;;;;;1.55;0.30;;;16.00;99.90;;;;;;4982255;28;20471;-82
2022/07/29 02:01:49;;;;;;;1.58;0.30;;;16.00;99.90;;;;;;4981542;28;20574;-78
2022/07/29 02:04:18;;;;;;;1.85;0.30;;;15.90;99.90;;;;;;4981599;28;20454;-79
2022/07/29 02:06:45;;;;;;;3.58;0.30;;;15.90;99.90;;;;;;4975151;28;20142;-78
2022/07/29 02:09:12;;;;;;;1.20;0.40;;;15.90;99.90;;;;;;4963893;28;20049;-81
2022/07/29 02:11:40;;;;;;;1.50;0.30;;;15.80;99.90;;;;;;4983458;28;20072;-79
2022/07/29 02:14:07;;;;;;;1.00;0.20;;;15.80;99.90;;;;;;4974998;28;20061;-78
2022/07/29 02:16:35;;;;;;;0.85;0.20;;;15.90;99.90;;;;;;4981420;28;20534;-84
2022/07/29 02:19:02;;;;;;;0.85;0.25;;;15.90;99.90;;;;;;4981335;28;20086;-78
2022/07/29 02:21:30;;;;;;;0.47;0.20;;;15.90;99.90;;;;;;4965362;28;20039;-84
2022/07/29 02:23:59;;;;;;;0.82;0.28;;;15.80;99.90;;;;;;4976037;28;20054;-80
2022/07/29 02:26:26;;;;;;;1.38;0.20;;;15.90;99.90;;;;;;4987302;28;20487;-80
2022/07/29 02:28:56;;;;;;;1.27;0.30;;;15.90;99.90;;;;;;4983389;28;20034;-80
2022/07/29 02:31:25;;;;;;;1.13;0.40;;;15.80;99.90;;;;;;4959386;28;20067;-78
2022/07/29 02:33:52;;;;;;;1.25;0.30;;;15.80;99.90;;;;;;4982131;28;20089;-85
2022/07/29 02:36:24;;;;;;;1.88;0.60;;;15.80;99.90;;;;;;4942328;28;20074;-82
2022/07/29 02:38:51;;;;;;;1.52;0.40;;;15.80;99.90;;;;;;4977674;28;20084;-84
2022/07/29 02:41:29;;;;;;;0.80;0.40;;;15.70;99.90;;;;;;4965430;28;20045;-81
2022/07/29 02:44:06;;;;;;;1.67;0.40;;;15.50;99.90;;;;;;4960799;28;20043;-85
2022/07/29 02:46:34;;;;;;;0.95;0.35;;;15.60;99.90;;;;;;4960089;28;20090;-85
2022/07/29 02:49:37;;;;;;;1.17;0.40;;;15.60;99.90;;;;;;4941241;28;20105;-83
2022/07/29 02:52:05;;;;;;;1.73;0.40;;;15.60;99.90;;;;;;4942190;28;20144;-82
2022/07/29 02:55:03;;;;;;;0.95;0.30;;;15.50;99.90;;;;;;4944103;28;20109;-81
2022/07/29 02:58:00;;;;;;;2.03;0.65;;;15.30;99.90;;;;;;4946722;28;21804;-81
2022/07/29 03:00:33;;;;;;;1.70;0.45;;;14.90;99.90;;;;;;4963492;28;20122;-81
2022/07/29 03:03:00;;;;;;;2.33;0.40;;;14.70;99.90;;;;;;4983356;28;20489;-80
2022/07/29 03:05:27;;;;;;;2.38;0.30;;;14.80;99.90;;;;;;4977644;28;20406;-81
2022/07/29 03:08:00;;;;;;;1.50;0.43;;;15.00;99.90;;;;;;4967341;28;20050;-81
2022/07/29 03:10:27;;;;;;;2.28;0.73;;;14.90;99.90;;;;;;4945446;28;20077;-81
2022/07/29 03:12:53;;;;;;;1.40;0.40;;;14.70;99.90;;;;;;4983238;28;20034;-80
2022/07/29 03:15:20;;;;;;;0.77;0.30;;;14.80;99.90;;;;;;4966423;28;20058;-82
2022/07/29 03:17:46;;;;;;;0.63;0.30;;;14.70;99.90;;;;;;4961346;28;20037;-81
2022/07/29 03:20:13;;;;;;;0.68;0.30;;;14.80;99.90;;;;;;4980249;28;20097;-80
2022/07/29 03:22:43;;;;;;;1.50;0.40;;;14.80;99.90;;;;;;4977570;28;20034;-79
2022/07/29 03:25:13;;;;;;;1.70;0.30;;;14.90;99.90;;;;;;4982467;28;20457;-82
2022/07/29 03:27:38;;;;;;;2.33;0.32;;;14.80;99.90;;;;;;4944358;28;20034;-80
2022/07/29 03:30:05;;;;;;;1.10;0.30;;;14.80;99.90;;;;;;4950330;28;20041;-80
2022/07/29 03:32:31;;;;;;;0.98;0.40;;;14.90;99.90;;;;;;4944867;28;20030;-81
2022/07/29 03:34:57;;;;;;;0.85;0.40;;;14.80;99.90;;;;;;4950358;28;20027;-82
2022/07/29 03:37:22;;;;;;;1.05;0.30;;;14.70;99.90;;;;;;4977247;28;20678;-81
2022/07/29 03:39:50;;;;;;;0.93;0.30;;;14.80;99.90;;;;;;4984760;28;20125;-81
2022/07/29 03:42:20;;;;;;;1.38;0.50;;;14.80;99.90;;;;;;4963745;28;20034;-81
2022/07/29 03:44:47;;;;;;;;;;;14.70;99.90;;;;;;4985021;28;20402;-80
2022/07/29 03:47:17;;;;;;;2.63;0.60;;;14.60;99.90;;;;;;4982239;28;19976;-80
2022/07/29 03:49:46;;;;;;;1.50;0.50;;;14.50;99.90;;;;;;4949655;28;20141;-81
2022/07/29 03:52:12;;;;;;;1.73;0.63;;;14.50;99.90;;;;;;4960382;28;20039;-81
2022/07/29 03:54:38;;;;;;;2.58;0.50;;;14.40;99.90;;;;;;4949820;28;20301;-83
2022/07/29 03:57:06;;;;;;;1.30;0.50;;;14.30;99.90;;;;;;4944549;28;20034;-79
2022/07/29 03:59:36;;;;;;;2.33;0.50;;;14.30;99.90;;;;;;4965832;28;20045;-81
2022/07/29 04:02:04;;;;;;;1.20;0.38;;;14.20;99.90;;;;;;4966017;28;20116;-82
2022/07/29 04:04:33;;;;;;;1.83;0.47;;;14.40;99.90;;;;;;4976471;28;20054;-82
2022/07/29 04:06:59;;;;;;;1.45;0.30;;;14.50;99.90;;;;;;4949286;28;20026;-82
2022/07/29 04:09:25;;;;;;;1.42;0.40;;;14.40;99.90;;;;;;4981621;28;20179;-81
2022/07/29 04:11:51;;;;;;;2.63;0.40;;;14.30;99.90;;;;;;4965028;28;20041;-82
2022/07/29 04:14:16;;;;;;;2.33;0.50;;;14.30;99.90;;;;;;4944913;28;20037;-81
2022/07/29 04:16:42;;;;;;;1.38;0.50;;;14.20;99.90;;;;;;4965635;28;20034;-80
2022/07/29 04:19:08;;;;;;;0.98;0.40;;;14.30;99.90;;;;;;4966491;28;20038;-80
2022/07/29 04:21:38;;;;;;;0.52;0.30;;;14.40;99.90;;;;;;4965960;28;20074;-80
2022/07/29 04:24:04;;;;;;;0.82;0.30;;;14.40;99.90;;;;;;4984060;28;20041;-82
2022/07/29 04:26:30;;;;;;;3.70;0.40;;;14.30;99.90;;;;;;4942840;28;20030;-81
2022/07/29 04:28:55;;;;;;;2.40;0.50;;;14.40;99.90;;;;;;4965274;28;20042;-80
2022/07/29 04:31:21;;;;;;;3.15;0.40;;;14.40;99.90;;;;;;4965725;28;20034;-81
2022/07/29 04:33:47;;;;;;;2.05;0.40;;;14.40;99.90;;;;;;4965258;28;20045;-80
2022/07/29 04:36:12;;;;;;;1.77;0.35;;;14.40;99.90;;;;;;4965309;28;20045;-81
2022/07/29 04:38:38;;;;;;;0.60;0.30;;;14.40;99.90;;;;;;4961949;28;20038;-80
2022/07/29 04:41:06;;;;;;;3.70;0.60;;;14.40;99.90;;;;;;4981334;28;20149;-81
2022/07/29 04:43:32;;;;;;;1.48;0.30;;;14.40;99.90;;;;;;4958645;28;20046;-80
2022/07/29 04:45:58;;;;;;;2.42;0.55;;;14.50;99.90;;;;;;4965467;28;20052;-80
2022/07/29 04:48:24;;;;;;;2.67;0.60;;;14.30;99.90;;;;;;4948984;28;20084;-80
2022/07/29 04:50:49;;;;;;;2.80;0.57;;;14.20;99.90;;;;;;4981561;28;20490;-80
2022/07/29 04:53:15;;;;;;;0.80;0.30;;;14.20;99.90;;;;;;4964638;28;20030;-79
2022/07/29 04:55:40;;;;;;;2.25;0.57;;;14.30;99.90;;;;;;4943142;28;20057;-81
2022/07/29 04:58:07;;;;;;;1.55;0.30;;;14.20;99.90;;;;;;4958884;28;20045;-80
2022/07/29 05:00:33;;;;;;;2.33;0.55;;;14.30;99.90;;;;;;4958652;28;20106;-80
2022/07/29 05:02:58;;;;;;;1.08;0.30;;;14.30;99.90;;;;;;4963918;28;20026;-81
2022/07/29 05:05:24;;;;;;;2.97;0.50;;;14.30;99.90;;;;;;4942466;28;20034;-81
2022/07/29 05:07:49;;;;;;;1.63;0.50;;;14.30;99.90;;;;;;4947811;28;20053;-80
2022/07/29 05:10:15;;;;;;;0.88;0.30;;;14.40;99.90;;;;;;4980630;28;20121;-81
2022/07/29 05:12:41;;;;;;;0.70;0.30;;;14.50;99.90;;;;;;4959452;28;20029;-80
2022/07/29 05:15:07;;;;;;;1.20;0.20;;;14.50;99.90;;;;;;4946938;28;20650;-83
2022/07/29 05:17:33;;;;;;;0.73;0.22;;;14.60;99.90;;;;;;4964355;28;20031;-81
2022/07/29 05:19:59;;;;;;;1.00;0.32;;;14.50;99.90;;;;;;4942571;28;20034;-80
2022/07/29 05:22:24;;;;;;;1.00;0.30;;;14.60;99.90;;;;;;4969639;28;20038;-81
2022/07/29 05:24:50;;;;;;;0.73;0.30;;;14.70;99.90;;;;;;4960914;28;20270;-80
2022/07/29 05:27:16;;;;;;;1.10;0.30;;;14.70;99.90;;;;;;4948090;28;20494;-81
2022/07/29 05:29:41;;;;;;;1.83;0.35;;;14.70;99.90;;;;;;4963959;28;20040;-81
2022/07/29 05:32:07;;;;;;;0.82;0.30;;;14.70;99.90;;;;;;4963594;28;20467;-81
2022/07/29 05:34:33;;;;;;;0.63;0.22;;;14.70;99.90;;;;;;4981478;28;20479;-80
2022/07/29 05:36:58;;;;;;;1.38;0.35;;;14.60;99.90;;;;;;4964184;28;20026;-80
2022/07/29 05:39:24;;;;;;;2.05;0.25;;;14.60;99.90;;;;;;4959268;28;20053;-81
2022/07/29 05:41:50;;;;;;;0.90;0.30;;;14.60;99.90;;;;;;4978956;28;20111;-82
2022/07/29 05:44:15;;;;;;;0.98;0.30;;;14.60;99.90;;;;;;4978733;28;20042;-80
2022/07/29 05:46:41;;;;;;;3.10;0.30;;;14.60;99.90;;;;;;4971040;28;20030;-84
2022/07/29 05:49:07;;;;;;;2.22;0.40;;;14.60;99.90;;;;;;4972577;28;20040;-81
2022/07/29 05:51:33;;;;;;;0.90;0.30;;;14.60;99.90;;;;;;4977204;28;20031;-80
2022/07/29 05:53:59;;;;;;;2.65;0.38;;;14.70;99.90;;;;;;4980826;28;20065;-82
2022/07/29 05:56:25;;;;;;;1.17;0.50;;;14.60;99.90;;;;;;4963881;28;20064;-80
2022/07/29 05:58:51;;;;;;;0.65;0.30;;;14.60;99.90;;;;;;4964136;28;20035;-81
2022/07/29 06:01:16;;;;;;;1.05;0.40;;;14.60;99.90;;;;;;4946850;28;20026;-81
2022/07/29 06:03:42;;;;;;;1.35;0.30;;;14.60;99.90;;;;;;4947646;28;20089;-81
2022/07/29 06:06:08;;;;;;;0.70;0.30;;;14.60;99.90;;;;;;4963356;28;20382;-80
2022/07/29 06:08:34;;;;;;;2.38;0.50;;;14.70;99.90;;;;;;4978823;28;20064;-81
2022/07/29 06:11:01;;;;;;;1.48;0.50;;;14.60;99.90;;;;;;4978892;28;20030;-80
2022/07/29 06:13:26;;;;;;;2.25;0.40;;;14.60;99.90;;;;;;4958008;28;20089;-79
2022/07/29 06:15:52;;;;;;;1.25;0.50;;;14.70;99.90;;;;;;4962712;28;20023;-81
2022/07/29 06:18:18;;;;;;;1.67;0.43;;;14.60;99.90;;;;;;4982526;28;20458;-81
2022/07/29 06:20:43;;;;;;;2.72;0.55;;;14.70;99.90;;;;;;4941422;28;20030;-81
2022/07/29 06:23:09;;;;;;;1.75;0.60;;;14.70;99.90;;;;;;4940158;28;20038;-80
2022/07/29 06:25:36;;;;;;;2.38;0.52;;;14.60;99.90;;;;;;4979133;28;20490;-80
2022/07/29 06:28:02;;;;;;;2.22;0.80;;;14.70;99.90;;;;;;4960333;28;20485;-80
2022/07/29 06:30:28;;;;;;;2.70;0.60;;;14.60;99.90;;;;;;4974683;28;20497;-80
2022/07/29 06:32:54;;;;;;;1.52;0.52;;;14.70;99.90;;;;;;4952832;28;20022;-80
2022/07/29 06:35:21;;;;;;;3.78;0.90;;;14.70;99.90;;;;;;4980937;28;20066;-80
2022/07/29 06:37:47;;;;;;;3.90;0.60;;;14.70;99.90;;;;;;4956098;28;20031;-80
2022/07/29 06:42:56;;;;;;;5.15;0.95;;;14.80;99.90;;;;;;4960975;28;20278;-81
2022/07/29 06:45:22;;;;;;;2.17;0.60;;;14.80;99.90;;;;;;4961284;28;20675;-80
2022/07/29 06:47:49;;;;;;;3.55;0.73;;;14.90;99.90;;;;;;4977847;28;20018;-80
2022/07/29 06:50:15;;;;;;;3.45;1.00;;;14.90;99.90;;;;;;4958367;28;20035;-81
2022/07/29 06:52:41;;;;;;;2.22;1.15;;;14.90;99.90;;;;;;4956326;28;20060;-80
2022/07/29 06:55:07;;;;;;;2.70;0.80;;;15.00;99.90;;;;;;4958191;28;20054;-80
2022/07/29 06:57:34;;;;;;;1.55;0.70;;;15.10;99.90;;;;;;4980673;28;20030;-81
2022/07/29 06:59:59;;;;;;;3.00;0.70;;;15.30;99.90;;;;;;4958683;28;20136;-81
2022/07/29 07:02:25;;;;;;;2.63;0.40;;;15.50;99.90;;;;;;4940783;28;20030;-80
2022/07/29 07:04:51;;;;;;;4.50;0.60;;;15.70;99.90;;;;;;4960029;28;20042;-81
2022/07/29 07:07:16;;;;;;;3.38;0.60;;;15.70;99.90;;;;;;4964227;28;20034;-81
2022/07/29 07:09:42;;;;;;;2.05;0.50;;;15.70;99.90;;;;;;4962520;28;20486;-82
2022/07/29 07:12:08;;;;;;;2.28;0.50;;;15.80;99.90;;;;;;4968636;28;20525;-80
2022/07/29 07:14:34;;;;;;;2.20;0.50;;;15.80;99.90;;;;;;4962828;28;20554;-80
2022/07/29 07:17:00;;;;;;;2.63;0.60;;;16.00;99.90;;;;;;4946484;28;20382;-81
2022/07/29 07:19:29;;;;;;;2.47;0.80;;;15.80;99.90;;;;;;4940906;28;20636;-80
2022/07/29 07:21:55;;;;;;;2.70;0.80;;;15.60;99.90;;;;;;4960536;28;20042;-80
2022/07/29 07:24:20;;;;;;;4.05;0.80;;;15.60;99.90;;;;;;4977505;28;20042;-80
2022/07/29 07:26:46;;;;;;;4.50;0.70;;;15.60;99.90;;;;;;4944555;28;20030;-81
2022/07/29 07:29:12;;;;;;;2.47;0.85;;;15.60;99.90;;;;;;4961956;28;20061;-80
2022/07/29 07:31:38;;;;;;;1.83;0.50;;;15.50;99.90;;;;;;4960711;28;20049;-82
2022/07/29 07:34:04;;;;;;;0.90;0.30;;;15.60;99.90;;;;;;4978187;28;20031;-79
2022/07/29 07:36:29;;;;;;;1.92;0.50;;;15.50;99.90;;;;;;4963007;28;20521;-81
2022/07/29 07:38:55;;;;;;;3.83;0.70;;;15.40;99.90;;;;;;4962674;28;20062;-82
2022/07/29 07:41:21;;;;;;;1.85;0.50;;;15.50;99.90;;;;;;4958965;28;20076;-82
2022/07/29 07:43:47;;;;;;;3.15;0.57;;;15.40;99.90;;;;;;4959708;28;20522;-79
2022/07/29 07:46:13;;;;;;;2.42;0.60;;;15.40;99.90;;;;;;4979949;28;20037;-82
2022/07/29 07:48:38;;;;;;;2.03;0.77;;;15.50;99.90;;;;;;4981481;28;20125;-82
2022/07/29 07:51:04;;;;;;;2.55;0.50;;;15.50;99.90;;;;;;4958412;28;20053;-82
2022/07/29 07:53:30;;;;;;;1.80;0.40;;;15.60;99.90;;;;;;4961701;28;20035;-80
2022/07/29 07:55:56;;;;;;;1.30;0.50;;;15.60;99.90;;;;;;4981770;28;20077;-80
2022/07/29 07:58:21;;;;;;;1.25;0.50;;;15.50;99.90;;;;;;4966335;28;20116;-79
2022/07/29 08:00:47;;;;;;;2.05;0.40;;;15.80;99.90;;;;;;4981169;28;20097;-80
2022/07/29 08:03:13;;;;;;;2.13;0.50;;;15.80;99.90;;;;;;4965073;28;20042;-80
2022/07/29 08:05:40;;;;;;;1.80;0.50;;;15.70;99.90;;;;;;4959616;28;20038;-83
2022/07/29 08:08:06;;;;;;;1.10;0.40;;;15.80;99.90;;;;;;4963973;28;20061;-86
2022/07/29 08:13:16;;;;;;;1.23;0.30;;;16.10;99.90;;;;;;4977327;28;20399;-85
2022/07/29 08:15:42;;;;;;;1.98;0.40;;;16.10;99.90;;;;;;4981975;28;20034;-84
2022/07/29 08:18:08;;;;;;;1.33;0.40;;;16.10;99.90;;;;;;4963813;28;20033;-84
2022/07/29 08:20:35;;;;;;;0.60;0.30;;;16.20;99.90;;;;;;4942890;28;20229;-84
2022/07/29 08:23:02;;;;;;;1.08;0.30;;;16.30;99.90;;;;;;4940157;28;20037;-82
2022/07/29 08:25:28;;;;;;;2.03;0.40;;;16.40;99.90;;;;;;4960975;28;20042;-84
2022/07/29 08:27:53;;;;;;;1.05;0.40;;;16.40;99.90;;;;;;4974501;28;20030;-83
2022/07/29 08:30:19;;;;;;;1.45;0.50;;;16.50;99.90;;;;;;4959545;28;21860;-80
2022/07/29 08:32:47;;;;;;;0.95;0.40;;;16.50;99.90;;;;;;4964582;28;20042;-82
2022/07/29 08:35:12;;;;;;;3.28;0.60;;;16.50;99.90;;;;;;4962895;28;20049;-86
2022/07/29 08:37:38;;;;;;;0.95;0.30;;;16.50;99.90;;;;;;4959781;28;20030;-85
2022/07/29 08:40:06;;;;;;;14.32;0.80;;;16.70;99.90;;;;;;4962029;28;20040;-85
2022/07/29 08:42:32;;;;;;;2.10;0.70;;;16.60;99.90;;;;;;4951714;28;20176;-80
2022/07/29 08:44:58;;;;;;;2.35;0.63;;;16.40;99.90;;;;;;4949215;28;20410;-80
2022/07/29 08:47:26;;;;;;;3.45;0.60;;;16.40;99.90;;;;;;4949898;28;20040;-81
2022/07/29 08:49:51;;;;;;;1.95;0.40;;;16.50;99.90;;;;;;4980109;28;20042;-80
2022/07/29 08:52:18;;;;;;;1.08;0.50;;;16.60;99.90;;;;;;4976108;28;20066;-80
2022/07/29 08:54:45;;;;;;;1.50;0.40;;;16.40;99.90;;;;;;4962284;28;20072;-82
2022/07/29 08:57:13;;;;;;;2.95;0.60;;;16.30;99.90;;;;;;4943634;28;20026;-84
2022/07/29 08:59:42;;;;;;;2.63;0.55;;;16.20;99.90;;;;;;4982677;28;20067;-81
2022/07/29 09:02:18;;;;;;;1.80;0.47;;;16.20;99.90;;;;;;4959703;28;20046;-83
2022/07/29 09:04:44;;;;;;;3.42;0.70;;;16.40;99.90;;;;;;4961480;28;20046;-86
2022/07/29 09:07:14;;;;;;;2.67;0.73;;;16.20;99.90;;;;;;4975416;28;20371;-84
2022/07/29 09:09:40;;;;;;;;;;;16.10;99.90;;;;;;4958424;28;20467;-79
2022/07/29 09:12:08;;;;;;;2.10;0.60;;;16.10;99.90;;;;;;4976519;28;19968;-82
2022/07/29 09:14:33;;;;;;;2.22;0.50;;;16.40;99.90;;;;;;4963896;28;20125;-81
2022/07/29 09:17:00;;;;;;;1.48;0.50;;;16.50;99.90;;;;;;4962827;28;20104;-82
2022/07/29 09:19:29;;;;;;;2.35;0.70;;;16.40;99.90;;;;;;4980185;28;20116;-80
2022/07/29 09:21:58;;;;;;;2.70;0.63;;;16.20;99.90;;;;;;4965318;28;20038;-84
2022/07/29 09:24:26;;;;;;;2.58;0.60;;;16.40;99.90;;;;;;4963002;28;20046;-82
2022/07/29 09:26:52;;;;;;;1.58;0.52;;;16.50;99.90;;;;;;4953141;28;20038;-82
2022/07/29 09:29:20;;;;;;;2.47;0.60;;;16.60;99.90;;;;;;4962881;28;20038;-81
2022/07/29 09:31:48;;;;;;;1.52;0.40;;;16.90;99.90;;;;;;4965255;28;20037;-83
2022/07/29 09:34:21;;;;;;;1.20;0.40;;;17.10;99.90;;;;;;4964002;28;20045;-83
2022/07/29 09:36:48;;;;;;;1.73;0.60;;;17.20;99.90;;;;;;4958225;28;20027;-82
2022/07/29 09:39:15;;;;;;;2.40;0.70;;;17.20;99.90;;;;;;4979303;28;20442;-80
2022/07/29 09:41:52;;;;;;;3.30;0.80;;;17.60;99.90;;;;;;4961786;28;20066;-82
2022/07/29 09:44:19;;;;;;;1.88;0.50;;;17.70;99.90;;;;;;4973136;28;20137;-85
2022/07/29 09:47:05;;;;;;;1.23;0.50;;;18.10;99.90;;;;;;4961287;28;20041;-84
2022/07/29 09:49:36;;;;;;;2.35;0.50;;;18.50;99.90;;;;;;4961095;28;20368;-80
2022/07/29 09:52:10;;;;;;;1.83;0.45;;;18.90;99.90;;;;;;4963127;28;20061;-80
2022/07/29 09:54:37;;;;;;;2.30;0.70;;;19.20;99.90;;;;;;4956993;28;20038;-81
2022/07/29 09:57:05;;;;;;;0.93;0.60;;;18.90;99.90;;;;;;4959483;28;20026;-83
2022/07/29 09:59:31;;;;;;;2.78;0.65;;;19.00;99.90;;;;;;4958761;28;20058;-81
2022/07/29 10:01:56;;;;;;;2.60;0.40;;;19.50;99.90;;;;;;4962895;28;20114;-84
2022/07/29 10:04:22;;;;;;;2.10;0.50;;;20.50;99.90;;;;;;4945325;28;20125;-87
2022/07/29 10:06:59;;;;;;;1.67;0.50;;;19.90;99.90;;;;;;4964548;28;20022;-88
2022/07/29 10:09:25;;;;;;;1.70;0.40;;;20.30;99.90;;;;;;4962205;28;20107;-89
2022/07/29 10:12:10;;;;;;;1.67;0.40;;;20.50;99.90;;;;;;4948760;28;20129;-90
2022/07/29 10:14:37;;;;;;;4.32;0.75;;;20.80;99.90;;;;;;4968433;28;20034;-92
2022/07/29 10:17:04;;;;;;;1.55;0.45;;;20.10;99.90;;;;;;4968104;28;20228;-84
2022/07/29 10:19:31;;;;;;;2.80;0.60;;;20.30;99.90;;;;;;4988146;28;20085;-83
2022/07/29 10:22:03;;;;;;;3.08;0.50;;;20.40;99.90;;;;;;4964458;28;20454;-87
2022/07/29 10:24:31;;;;;;;1.67;0.85;;;20.50;99.90;;;;;;4955201;28;20112;-89
2022/07/29 10:26:58;;;;;;;2.55;0.60;;;19.80;99.90;;;;;;4981539;28;20026;-84
2022/07/29 10:29:24;;;;;;;2.92;0.57;;;20.10;99.90;;;;;;4986769;28;20136;-88
2022/07/29 10:32:12;;;;;;;1.88;0.52;;;20.30;99.90;;;;;;4974169;28;20026;-89
2022/07/29 10:35:12;;;;;;;1.73;0.40;;;21.10;99.90;;;;;;4969572;28;20034;-90
2022/07/29 10:37:47;;;;;;;4.00;0.70;;;21.70;99.90;;;;;;4951947;28;20052;-89
2022/07/29 10:43:41;;;;;;;1.58;0.40;;;20.80;99.90;;;;;;4968142;28;20139;-95
2022/07/29 10:46:07;;;;;;;2.13;0.60;;;21.00;99.90;;;;;;4968065;28;20038;-92
2022/07/29 10:48:33;;;;;;;1.30;0.40;;;20.70;99.90;;;;;;4969348;28;20026;-91
2022/07/29 10:51:04;;;;;;;3.30;0.40;;;21.00;99.90;;;;;;4996297;28;20065;-90
2022/07/29 10:53:51;;;;;;;1.05;0.40;;;21.20;99.90;;;;;;4956200;28;20142;-90
2022/07/29 10:56:33;;;;;;;1.42;0.50;;;21.50;99.90;;;;;;4955145;28;20715;-93
2022/07/29 10:59:18;;;;;;;1.75;0.30;;;21.50;99.90;;;;;;4967916;28;20124;-87
2022/07/29 11:01:44;;;;;;;0.70;0.40;;;21.60;99.90;;;;;;4958921;28;20037;-88
2022/07/29 11:04:10;;;;;;;1.05;0.30;;;21.70;99.90;;;;;;4958711;28;20038;-86
2022/07/29 11:07:00;;;;;;;1.73;0.60;;;21.60;99.90;;;;;;4986400;28;20031;-90
2022/07/29 11:09:26;;;;;;;3.65;0.70;;;21.10;99.90;;;;;;4966460;28;20487;-91
2022/07/29 11:11:52;;;;;;;2.28;0.50;;;21.10;99.90;;;;;;4956329;28;20042;-85
2022/07/29 11:14:39;;;;;;;2.28;0.60;;;21.10;99.90;;;;;;4973029;28;20175;-86
2022/07/29 11:17:06;;;;;;;2.00;0.30;;;21.00;99.90;;;;;;4954832;28;20045;-88
2022/07/29 11:19:31;;;;;;;1.98;0.50;;;21.60;99.90;;;;;;4976452;28;20026;-82
2022/07/29 11:21:58;;;;;;;1.98;0.52;;;21.20;99.90;;;;;;4973020;28;20077;-91
2022/07/29 11:24:28;;;;;;;1.40;0.50;;;21.20;99.90;;;;;;4989004;28;20414;-89
2022/07/29 11:27:06;;;;;;;;;;;20.60;99.90;;;;;;4965973;28;20057;-87
2022/07/29 11:29:32;;;;;;;3.95;0.65;;;20.70;99.90;;;;;;4984787;28;19920;-92
2022/07/29 11:32:10;;;;;;;1.30;0.50;;;20.80;99.90;;;;;;4985052;28;20026;-82
2022/07/29 11:34:40;;;;;;;2.67;0.50;;;21.20;99.90;;;;;;4950389;28;20120;-91
2022/07/29 11:37:14;;;;;;;;;;;20.90;99.90;;;;;;4973783;28;20045;-93
2022/07/29 11:39:46;;;;;;;2.45;0.40;;;21.50;99.90;;;;;;4969790;28;19914;-93
2022/07/29 11:42:24;;;;;;;2.05;0.60;;;21.50;99.90;;;;;;4980486;28;20043;-93
2022/07/29 11:45:09;;;;;;;3.78;0.50;;;21.10;99.90;;;;;;4990743;28;20035;-89
2022/07/29 11:47:40;;;;;;;3.67;0.80;;;21.10;99.90;;;;;;4986420;28;20117;-92
2022/07/29 11:50:09;;;;;;;3.88;0.82;;;21.30;99.90;;;;;;4950061;28;20037;-92
2022/07/29 11:52:42;;;;;;;4.57;0.60;;;21.30;99.90;;;;;;4972040;28;20050;-92
2022/07/29 11:55:10;;;;;;;2.95;0.70;;;21.30;99.90;;;;;;4947731;28;20093;-86
2022/07/29 11:57:36;;;;;;;3.45;0.70;;;21.60;99.90;;;;;;4983293;28;20624;-85
2022/07/29 12:00:10;;;;;;;2.00;0.30;;;21.80;99.90;;;;;;4981000;28;20030;-84
2022/07/29 12:02:43;;;;;;;1.88;0.45;;;22.40;99.90;;;;;;4968352;28;20666;-82
2022/07/29 12:05:13;;;;;;;3.97;0.63;;;22.10;99.90;;;;;;4953009;28;22382;-87
2022/07/29 12:07:38;;;;;;;;;;;22.30;99.90;;;;;;4984335;28;20042;-88
2022/07/29 12:10:06;;;;;;;1.15;0.40;;;22.70;99.90;;;;;;4962733;28;20393;-90
2022/07/29 12:12:32;;;;;;;3.05;0.40;;;22.80;99.90;;;;;;4963339;28;20029;-84
2022/07/29 12:14:58;;;;;;;2.08;0.40;;;22.70;99.90;;;;;;4970724;28;20026;-88
2022/07/29 12:17:34;;;;;;;2.17;0.47;;;22.90;99.90;;;;;;4984308;28;20482;-91
2022/07/29 12:20:03;;;;;;;2.88;0.40;;;22.70;99.90;;;;;;4967191;28;20118;-90
2022/07/29 12:22:33;;;;;;;3.67;0.33;;;23.00;99.90;;;;;;4951783;28;20034;-94
2022/07/29 12:25:11;;;;;;;4.00;0.40;;;23.20;99.90;;;;;;4961999;28;20390;-88
2022/07/29 12:27:38;;;;;;;0.80;0.20;;;23.30;99.90;;;;;;4960844;28;20040;-86
2022/07/29 12:30:09;;;;;;;2.22;0.20;;;23.70;99.90;;;;;;4964967;28;20124;-87
2022/07/29 12:32:41;;;;;;;1.05;0.20;;;23.50;99.90;;;;;;4966609;28;20030;-90
2022/07/29 12:35:11;;;;;;;1.70;0.50;;;23.80;99.90;;;;;;4951456;28;20026;-93
2022/07/29 12:37:39;;;;;;;1.40;0.30;;;23.60;99.90;;;;;;4980654;28;20026;-92
2022/07/29 12:40:07;;;;;;;1.67;0.40;;;23.50;99.90;;;;;;4982189;28;20178;-90
2022/07/29 12:42:33;;;;;;;3.85;0.38;;;24.00;99.90;;;;;;4965511;28;20035;-92
2022/07/29 12:45:00;;;;;;;1.98;0.30;;;23.50;99.90;;;;;;4945549;28;20337;-92
2022/07/29 12:47:27;;;;;;;1.13;0.30;;;23.80;99.90;;;;;;4966271;28;20121;-85
2022/07/29 12:50:17;;;;;;;1.05;0.30;;;24.20;99.90;;;;;;4984237;28;20034;-82
2022/07/29 12:52:44;;;;;;;1.20;0.25;;;24.30;99.90;;;;;;4947913;28;20123;-89
2022/07/29 12:55:11;;;;;;;0.80;0.20;;;24.70;99.90;;;;;;4947173;28;20038;-84
2022/07/29 12:57:47;;;;;;;1.48;0.30;;;24.90;99.90;;;;;;4980989;28;20355;-91
2022/07/29 13:00:15;;;;;;;2.65;0.30;;;24.90;99.90;;;;;;4963079;28;20125;-80
2022/07/29 13:02:43;;;;;;;2.67;0.55;;;24.50;99.90;;;;;;4944209;28;20113;-86
2022/07/29 13:05:11;;;;;;;0.77;0.20;;;24.30;99.90;;;;;;4976168;28;20173;-90
2022/07/29 13:07:37;;;;;;;2.85;0.30;;;24.50;99.90;;;;;;4981268;28;20046;-91